AAL281 KBOS-KJFK
Flight info
| Callsign | AAL281 |
|---|---|
| Flight time | 0h 44m |
| Altitude | 20000 |
| Route | SSOXS7 SSOXS BUZRD SEY PARCH4 |
| Aircraft | B738/M-SDE2E3FGHIRWXY/LB1 |
Departure
| Time | 2026-05-07 00:09 |
|---|---|
| Airport | Boston Logan International Airport (KBOS) |
Arrival
| Time | 2026-05-07 00:53 |
|---|---|
| Airport | John F. Kennedy International Airport (KJFK) |
| Time | Latitude | Longitude | Altitude | Speed | Heading |
|---|---|---|---|---|---|
| 2026-05-06 23:24 | 42.36226 | -71.02092 | 29 ft | 0 kts | 177° |
| 2026-05-06 23:43 | 42.36227 | -71.02092 | 24 ft | 2 kts | 177° |
| 2026-05-06 23:44 | 42.36252 | -71.02095 | 29 ft | 3 kts | 175° |
| 2026-05-06 23:44 | 42.36274 | -71.02095 | 28 ft | 4 kts | 204° |
| 2026-05-06 23:44 | 42.36292 | -71.02073 | 29 ft | 4 kts | 248° |
| 2026-05-06 23:44 | 42.36297 | -71.02053 | 27 ft | 1 kts | 257° |
| 2026-05-06 23:45 | 42.36297 | -71.02051 | 27 ft | 0 kts | 257° |
| 2026-05-06 23:47 | 42.36296 | -71.02058 | 28 ft | 3 kts | 256° |
| 2026-05-06 23:48 | 42.36291 | -71.02087 | 27 ft | 3 kts | 256° |
| 2026-05-06 23:48 | 42.36285 | -71.02116 | 29 ft | 4 kts | 254° |
| 2026-05-06 23:48 | 42.36279 | -71.02152 | 26 ft | 4 kts | 267° |
| 2026-05-06 23:48 | 42.36292 | -71.02198 | 24 ft | 6 kts | 301° |
| 2026-05-06 23:49 | 42.36317 | -71.02257 | 24 ft | 8 kts | 295° |
| 2026-05-06 23:49 | 42.36306 | -71.02325 | 28 ft | 8 kts | 222° |
| 2026-05-06 23:49 | 42.36254 | -71.02342 | 24 ft | 8 kts | 185° |
| 2026-05-06 23:49 | 42.36211 | -71.02347 | 26 ft | 4 kts | 185° |
| 2026-05-06 23:50 | 42.36201 | -71.02348 | 25 ft | 0 kts | 184° |
| 2026-05-06 23:51 | 42.36185 | -71.02349 | 24 ft | 5 kts | 184° |
| 2026-05-06 23:51 | 42.36138 | -71.02349 | 26 ft | 9 kts | 170° |
| 2026-05-06 23:52 | 42.36069 | -71.02309 | 24 ft | 11 kts | 148° |
| 2026-05-06 23:52 | 42.36015 | -71.02219 | 26 ft | 14 kts | 120° |
| 2026-05-06 23:52 | 42.35967 | -71.02111 | 27 ft | 13 kts | 122° |
| 2026-05-06 23:52 | 42.35921 | -71.02006 | 27 ft | 13 kts | 121° |
| 2026-05-06 23:53 | 42.35876 | -71.01905 | 24 ft | 12 kts | 120° |
| 2026-05-06 23:53 | 42.35847 | -71.01799 | 24 ft | 12 kts | 102° |
| 2026-05-06 23:53 | 42.35831 | -71.01690 | 27 ft | 12 kts | 102° |
| 2026-05-06 23:53 | 42.35834 | -71.01588 | 28 ft | 11 kts | 53° |
| 2026-05-06 23:54 | 42.35911 | -71.01539 | 24 ft | 14 kts | 19° |
| 2026-05-06 23:54 | 42.36016 | -71.01489 | 24 ft | 18 kts | 19° |
| 2026-05-06 23:54 | 42.36139 | -71.01430 | 24 ft | 19 kts | 20° |
| 2026-05-06 23:54 | 42.36262 | -71.01370 | 26 ft | 18 kts | 20° |
| 2026-05-06 23:55 | 42.36380 | -71.01313 | 25 ft | 18 kts | 20° |
| 2026-05-06 23:55 | 42.36493 | -71.01258 | 25 ft | 17 kts | 19° |
| 2026-05-06 23:55 | 42.36601 | -71.01205 | 27 ft | 15 kts | 20° |
| 2026-05-06 23:55 | 42.36694 | -71.01160 | 26 ft | 13 kts | 20° |
| 2026-05-06 23:56 | 42.36766 | -71.01146 | 27 ft | 10 kts | 349° |
| 2026-05-06 23:56 | 42.36823 | -71.01194 | 24 ft | 8 kts | 316° |
| 2026-05-06 23:56 | 42.36836 | -71.01211 | 24 ft | 0 kts | 316° |
| 2026-05-06 23:57 | 42.36854 | -71.01228 | 24 ft | 5 kts | 336° |
| 2026-05-06 23:57 | 42.36903 | -71.01201 | 26 ft | 9 kts | 37° |
| 2026-05-06 23:57 | 42.36968 | -71.01131 | 26 ft | 14 kts | 37° |
| 2026-05-06 23:57 | 42.37054 | -71.01067 | 28 ft | 12 kts | 26° |
| 2026-05-06 23:58 | 42.37104 | -71.01035 | 27 ft | 0 kts | 26° |
| 2026-05-06 23:59 | 42.37129 | -71.01018 | 24 ft | 10 kts | 26° |
| 2026-05-06 23:59 | 42.37216 | -71.00961 | 26 ft | 15 kts | 25° |
| 2026-05-06 23:59 | 42.37311 | -71.00903 | 24 ft | 15 kts | 21° |
| 2026-05-07 00:00 | 42.37404 | -71.00857 | 28 ft | 14 kts | 19° |
| 2026-05-07 00:00 | 42.37494 | -71.00814 | 26 ft | 13 kts | 19° |
| 2026-05-07 00:00 | 42.37573 | -71.00777 | 27 ft | 10 kts | 19° |
| 2026-05-07 00:00 | 42.37639 | -71.00745 | 26 ft | 10 kts | 19° |
| 2026-05-07 00:01 | 42.37700 | -71.00715 | 24 ft | 9 kts | 20° |
| 2026-05-07 00:01 | 42.37734 | -71.00698 | 27 ft | 0 kts | 20° |
| 2026-05-07 00:01 | 42.37745 | -71.00693 | 24 ft | 6 kts | 20° |
| 2026-05-07 00:01 | 42.37757 | -71.00687 | 24 ft | 0 kts | 20° |
| 2026-05-07 00:02 | 42.37771 | -71.00679 | 26 ft | 6 kts | 21° |
| 2026-05-07 00:02 | 42.37810 | -71.00658 | 26 ft | 3 kts | 28° |
| 2026-05-07 00:04 | 42.37818 | -71.00652 | 26 ft | 3 kts | 29° |
| 2026-05-07 00:04 | 42.37835 | -71.00628 | 24 ft | 5 kts | 57° |
| 2026-05-07 00:04 | 42.37836 | -71.00589 | 24 ft | 2 kts | 109° |
| 2026-05-07 00:06 | 42.37834 | -71.00581 | 24 ft | 4 kts | 109° |
| 2026-05-07 00:06 | 42.37821 | -71.00530 | 24 ft | 6 kts | 109° |
| 2026-05-07 00:07 | 42.37800 | -71.00481 | 27 ft | 6 kts | 148° |
| 2026-05-07 00:07 | 42.37769 | -71.00485 | 26 ft | 0 kts | 200° |
| 2026-05-07 00:08 | 42.37766 | -71.00486 | 24 ft | 3 kts | 200° |
| 2026-05-07 00:08 | 42.37544 | -71.00593 | 28 ft | 68 kts | 200° |
| 2026-05-07 00:08 | 42.36890 | -71.00909 | 25 ft | 129 kts | 200° |
| 2026-05-07 00:09 | 42.35920 | -71.01383 | 312 ft | 153 kts | 201° |
| 2026-05-07 00:09 | 42.34936 | -71.01784 | 1192 ft | 149 kts | 188° |
| 2026-05-07 00:09 | 42.33860 | -71.01356 | 1570 ft | 187 kts | 149° |
| 2026-05-07 00:09 | 42.32905 | -70.99944 | 1914 ft | 216 kts | 135° |
| 2026-05-07 00:10 | 42.31947 | -70.98279 | 2300 ft | 232 kts | 134° |
| 2026-05-07 00:10 | 42.31154 | -70.96310 | 2774 ft | 251 kts | 106° |
| 2026-05-07 00:10 | 42.31230 | -70.93826 | 3004 ft | 282 kts | 77° |
| 2026-05-07 00:10 | 42.31713 | -70.91194 | 3543 ft | 293 kts | 77° |
| 2026-05-07 00:11 | 42.32155 | -70.88479 | 4287 ft | 297 kts | 79° |
| 2026-05-07 00:11 | 42.32565 | -70.85727 | 5031 ft | 301 kts | 79° |
| 2026-05-07 00:11 | 42.32966 | -70.82927 | 5757 ft | 306 kts | 80° |
| 2026-05-07 00:11 | 42.33135 | -70.80072 | 6446 ft | 306 kts | 102° |
| 2026-05-07 00:12 | 42.32484 | -70.77372 | 7183 ft | 302 kts | 119° |
| 2026-05-07 00:12 | 42.31590 | -70.74790 | 7848 ft | 306 kts | 121° |
| 2026-05-07 00:12 | 42.30666 | -70.72173 | 8526 ft | 311 kts | 121° |
| 2026-05-07 00:12 | 42.29634 | -70.69614 | 9205 ft | 308 kts | 136° |
| 2026-05-07 00:13 | 42.28034 | -70.67823 | 9877 ft | 294 kts | 161° |
| 2026-05-07 00:13 | 42.26153 | -70.66818 | 10428 ft | 295 kts | 169° |
| 2026-05-07 00:13 | 42.24130 | -70.65929 | 10592 ft | 317 kts | 170° |
| 2026-05-07 00:13 | 42.21963 | -70.64985 | 10759 ft | 338 kts | 169° |
| 2026-05-07 00:14 | 42.19698 | -70.63972 | 10906 ft | 357 kts | 168° |
| 2026-05-07 00:14 | 42.17282 | -70.62874 | 11049 ft | 375 kts | 168° |
| 2026-05-07 00:14 | 42.14745 | -70.61901 | 11286 ft | 378 kts | 179° |
| 2026-05-07 00:14 | 42.12174 | -70.62062 | 11833 ft | 366 kts | 198° |
| 2026-05-07 00:15 | 42.09750 | -70.63015 | 12499 ft | 362 kts | 203° |
| 2026-05-07 00:15 | 42.07356 | -70.64102 | 13084 ft | 364 kts | 204° |
| 2026-05-07 00:15 | 42.04946 | -70.65211 | 13668 ft | 367 kts | 204° |
| 2026-05-07 00:15 | 42.02523 | -70.66316 | 14211 ft | 369 kts | 204° |
| 2026-05-07 00:16 | 42.00080 | -70.67413 | 14747 ft | 372 kts | 203° |
| 2026-05-07 00:16 | 41.97615 | -70.68508 | 15269 ft | 374 kts | 203° |
| 2026-05-07 00:16 | 41.95130 | -70.69604 | 15775 ft | 378 kts | 203° |
| 2026-05-07 00:16 | 41.92624 | -70.70704 | 16300 ft | 380 kts | 203° |
| 2026-05-07 00:17 | 41.90103 | -70.71809 | 16807 ft | 382 kts | 203° |
| 2026-05-07 00:17 | 41.87565 | -70.72921 | 17292 ft | 385 kts | 203° |
| 2026-05-07 00:17 | 41.85009 | -70.74039 | 17778 ft | 388 kts | 203° |
| 2026-05-07 00:17 | 41.82490 | -70.75323 | 18208 ft | 386 kts | 210° |
| 2026-05-07 00:18 | 41.80138 | -70.77063 | 18595 ft | 387 kts | 214° |
| 2026-05-07 00:18 | 41.77803 | -70.78896 | 18909 ft | 391 kts | 214° |
| 2026-05-07 00:18 | 41.75443 | -70.80742 | 19255 ft | 395 kts | 214° |
| 2026-05-07 00:18 | 41.73050 | -70.82585 | 19612 ft | 398 kts | 214° |
| 2026-05-07 00:19 | 41.70629 | -70.84425 | 19850 ft | 402 kts | 214° |
| 2026-05-07 00:19 | 41.68186 | -70.86264 | 19848 ft | 403 kts | 214° |
| 2026-05-07 00:19 | 41.65748 | -70.88088 | 19884 ft | 401 kts | 214° |
| 2026-05-07 00:19 | 41.63312 | -70.89908 | 19873 ft | 401 kts | 214° |
| 2026-05-07 00:20 | 41.60882 | -70.91723 | 19847 ft | 399 kts | 214° |
| 2026-05-07 00:20 | 41.58459 | -70.93533 | 19852 ft | 399 kts | 214° |
| 2026-05-07 00:20 | 41.56096 | -70.95439 | 19857 ft | 395 kts | 220° |
| 2026-05-07 00:20 | 41.53972 | -70.97736 | 19864 ft | 392 kts | 226° |
| 2026-05-07 00:21 | 41.52107 | -71.00360 | 19862 ft | 389 kts | 233° |
| 2026-05-07 00:21 | 41.50409 | -71.03176 | 19866 ft | 390 kts | 233° |
| 2026-05-07 00:21 | 41.48702 | -71.05990 | 19864 ft | 390 kts | 233° |
| 2026-05-07 00:21 | 41.46988 | -71.08798 | 19874 ft | 391 kts | 233° |
| 2026-05-07 00:22 | 41.45266 | -71.11607 | 19876 ft | 391 kts | 233° |
| 2026-05-07 00:22 | 41.43540 | -71.14413 | 19848 ft | 392 kts | 233° |
| 2026-05-07 00:22 | 41.41812 | -71.17218 | 19863 ft | 392 kts | 233° |
| 2026-05-07 00:22 | 41.40084 | -71.20019 | 19865 ft | 392 kts | 233° |
| 2026-05-07 00:23 | 41.38353 | -71.22823 | 19869 ft | 392 kts | 233° |
| 2026-05-07 00:23 | 41.36621 | -71.25625 | 19873 ft | 392 kts | 233° |
| 2026-05-07 00:23 | 41.34886 | -71.28429 | 19871 ft | 392 kts | 233° |
| 2026-05-07 00:23 | 41.33151 | -71.31231 | 19868 ft | 392 kts | 233° |
| 2026-05-07 00:24 | 41.31416 | -71.34030 | 19869 ft | 392 kts | 233° |
| 2026-05-07 00:24 | 41.29681 | -71.36828 | 19872 ft | 392 kts | 233° |
| 2026-05-07 00:24 | 41.27945 | -71.39624 | 19870 ft | 392 kts | 233° |
| 2026-05-07 00:24 | 41.26210 | -71.42416 | 19871 ft | 392 kts | 233° |
| 2026-05-07 00:25 | 41.25061 | -71.44264 | 19872 ft | 392 kts | 233° |
| 2026-05-07 00:25 | 41.23326 | -71.47052 | 19869 ft | 391 kts | 233° |
| 2026-05-07 00:25 | 41.21592 | -71.49838 | 19871 ft | 391 kts | 233° |
| 2026-05-07 00:25 | 41.19857 | -71.52620 | 19867 ft | 391 kts | 233° |
| 2026-05-07 00:26 | 41.18137 | -71.55418 | 19876 ft | 390 kts | 236° |
| 2026-05-07 00:26 | 41.16828 | -71.58537 | 19883 ft | 387 kts | 249° |
| 2026-05-07 00:26 | 41.16106 | -71.61969 | 19876 ft | 387 kts | 259° |
| 2026-05-07 00:26 | 41.15674 | -71.65489 | 19874 ft | 387 kts | 260° |
| 2026-05-07 00:27 | 41.15267 | -71.69020 | 19867 ft | 387 kts | 260° |
| 2026-05-07 00:27 | 41.14859 | -71.72546 | 19867 ft | 387 kts | 260° |
| 2026-05-07 00:27 | 41.14441 | -71.76068 | 19844 ft | 386 kts | 260° |
| 2026-05-07 00:27 | 41.14015 | -71.79582 | 19863 ft | 386 kts | 260° |
| 2026-05-07 00:28 | 41.13581 | -71.83098 | 19863 ft | 386 kts | 260° |
| 2026-05-07 00:28 | 41.13143 | -71.86613 | 19868 ft | 386 kts | 260° |
| 2026-05-07 00:28 | 41.12703 | -71.90125 | 19869 ft | 386 kts | 259° |
| 2026-05-07 00:28 | 41.12260 | -71.93640 | 19883 ft | 387 kts | 260° |
| 2026-05-07 00:29 | 41.11816 | -71.97158 | 19877 ft | 386 kts | 260° |
| 2026-05-07 00:29 | 41.11371 | -72.00674 | 19872 ft | 386 kts | 260° |
| 2026-05-07 00:30 | 41.10034 | -72.11199 | 19870 ft | 386 kts | 259° |
| 2026-05-07 00:30 | 41.09439 | -72.14662 | 19866 ft | 385 kts | 254° |
| 2026-05-07 00:30 | 41.08631 | -72.18047 | 19871 ft | 385 kts | 252° |
| 2026-05-07 00:30 | 41.07758 | -72.21396 | 19825 ft | 383 kts | 251° |
| 2026-05-07 00:31 | 41.06884 | -72.24712 | 19309 ft | 377 kts | 251° |
| 2026-05-07 00:31 | 41.06032 | -72.27981 | 18736 ft | 373 kts | 251° |
| 2026-05-07 00:31 | 41.05204 | -72.31213 | 18086 ft | 370 kts | 251° |
| 2026-05-07 00:31 | 41.04387 | -72.34442 | 17368 ft | 369 kts | 251° |
| 2026-05-07 00:32 | 41.03580 | -72.37657 | 16687 ft | 368 kts | 251° |
| 2026-05-07 00:32 | 41.02782 | -72.40845 | 16156 ft | 361 kts | 251° |
| 2026-05-07 00:32 | 41.01998 | -72.43981 | 15539 ft | 357 kts | 251° |
| 2026-05-07 00:32 | 41.01223 | -72.47080 | 14944 ft | 353 kts | 251° |
| 2026-05-07 00:33 | 41.00460 | -72.50131 | 14352 ft | 344 kts | 251° |
| 2026-05-07 00:33 | 40.99717 | -72.53094 | 13767 ft | 335 kts | 251° |
| 2026-05-07 00:33 | 40.98989 | -72.55998 | 13184 ft | 330 kts | 251° |
| 2026-05-07 00:33 | 40.98276 | -72.58836 | 13007 ft | 319 kts | 251° |
| 2026-05-07 00:34 | 40.97590 | -72.61560 | 12871 ft | 303 kts | 251° |
| 2026-05-07 00:34 | 40.96943 | -72.64131 | 12736 ft | 286 kts | 251° |
| 2026-05-07 00:34 | 40.96333 | -72.66551 | 12614 ft | 269 kts | 251° |
| 2026-05-07 00:34 | 40.95755 | -72.68846 | 12513 ft | 258 kts | 251° |
| 2026-05-07 00:35 | 40.95196 | -72.71058 | 12413 ft | 251 kts | 251° |
| 2026-05-07 00:35 | 40.94647 | -72.73230 | 12316 ft | 248 kts | 251° |
| 2026-05-07 00:35 | 40.94098 | -72.75400 | 12227 ft | 249 kts | 251° |
| 2026-05-07 00:35 | 40.93544 | -72.77584 | 12108 ft | 252 kts | 251° |
| 2026-05-07 00:36 | 40.92760 | -72.79656 | 12032 ft | 254 kts | 235° |
| 2026-05-07 00:36 | 40.91559 | -72.81321 | 11948 ft | 255 kts | 224° |
| 2026-05-07 00:36 | 40.90146 | -72.82743 | 11699 ft | 256 kts | 221° |
| 2026-05-07 00:36 | 40.88687 | -72.84114 | 11278 ft | 259 kts | 220° |
| 2026-05-07 00:37 | 40.87195 | -72.85506 | 10965 ft | 259 kts | 220° |
| 2026-05-07 00:37 | 40.85746 | -72.86865 | 10688 ft | 258 kts | 220° |
| 2026-05-07 00:37 | 40.84289 | -72.88241 | 10406 ft | 257 kts | 221° |
| 2026-05-07 00:37 | 40.82838 | -72.89618 | 10100 ft | 256 kts | 221° |
| 2026-05-07 00:38 | 40.81392 | -72.90995 | 9768 ft | 256 kts | 221° |
| 2026-05-07 00:38 | 40.79948 | -72.92373 | 9416 ft | 256 kts | 221° |
| 2026-05-07 00:38 | 40.78505 | -72.93751 | 9080 ft | 256 kts | 221° |
| 2026-05-07 00:38 | 40.77062 | -72.95131 | 9040 ft | 258 kts | 221° |
| 2026-05-07 00:39 | 40.75617 | -72.96512 | 8999 ft | 254 kts | 222° |
| 2026-05-07 00:39 | 40.74423 | -72.98123 | 8909 ft | 242 kts | 246° |
| 2026-05-07 00:39 | 40.73932 | -73.00214 | 8652 ft | 239 kts | 257° |
| 2026-05-07 00:39 | 40.73549 | -73.02360 | 8222 ft | 242 kts | 257° |
| 2026-05-07 00:40 | 40.73163 | -73.04558 | 7864 ft | 243 kts | 257° |
| 2026-05-07 00:40 | 40.72786 | -73.06729 | 7527 ft | 243 kts | 257° |
| 2026-05-07 00:40 | 40.72413 | -73.08897 | 7201 ft | 242 kts | 257° |
| 2026-05-07 00:40 | 40.72031 | -73.11064 | 6846 ft | 244 kts | 254° |
| 2026-05-07 00:41 | 40.71291 | -73.13049 | 6535 ft | 245 kts | 239° |
| 2026-05-07 00:41 | 40.70325 | -73.14920 | 6273 ft | 244 kts | 237° |
| 2026-05-07 00:41 | 40.69345 | -73.16766 | 5956 ft | 245 kts | 237° |
| 2026-05-07 00:41 | 40.68365 | -73.18585 | 5689 ft | 243 kts | 237° |
| 2026-05-07 00:42 | 40.67395 | -73.20379 | 5274 ft | 246 kts | 237° |
| 2026-05-07 00:42 | 40.66411 | -73.22207 | 5124 ft | 245 kts | 237° |
| 2026-05-07 00:42 | 40.65427 | -73.24037 | 5027 ft | 244 kts | 237° |
| 2026-05-07 00:42 | 40.64563 | -73.25921 | 4994 ft | 239 kts | 250° |
| 2026-05-07 00:43 | 40.64123 | -73.28012 | 5010 ft | 236 kts | 256° |
| 2026-05-07 00:43 | 40.63763 | -73.30123 | 5007 ft | 237 kts | 257° |
| 2026-05-07 00:43 | 40.63408 | -73.32251 | 5008 ft | 239 kts | 257° |
| 2026-05-07 00:43 | 40.63044 | -73.34408 | 5010 ft | 243 kts | 257° |
| 2026-05-07 00:44 | 40.62678 | -73.36578 | 5005 ft | 243 kts | 257° |
| 2026-05-07 00:44 | 40.62318 | -73.38751 | 5000 ft | 243 kts | 257° |
| 2026-05-07 00:44 | 40.61957 | -73.40914 | 5000 ft | 242 kts | 258° |
| 2026-05-07 00:44 | 40.61957 | -73.43106 | 4968 ft | 244 kts | 285° |
| 2026-05-07 00:45 | 40.62955 | -73.44929 | 4828 ft | 255 kts | 319° |
| 2026-05-07 00:45 | 40.64639 | -73.45781 | 4511 ft | 268 kts | 343° |
| 2026-05-07 00:45 | 40.66493 | -73.46137 | 4170 ft | 270 kts | 347° |
| 2026-05-07 00:45 | 40.68358 | -73.46442 | 4029 ft | 270 kts | 347° |
| 2026-05-07 00:46 | 40.70195 | -73.46728 | 3928 ft | 259 kts | 347° |
| 2026-05-07 00:46 | 40.71933 | -73.46987 | 3855 ft | 242 kts | 345° |
| 2026-05-07 00:46 | 40.73385 | -73.47729 | 3678 ft | 211 kts | 311° |
| 2026-05-07 00:46 | 40.74226 | -73.49226 | 3375 ft | 201 kts | 297° |
| 2026-05-07 00:47 | 40.74977 | -73.50784 | 3058 ft | 200 kts | 297° |
| 2026-05-07 00:47 | 40.75703 | -73.52274 | 3007 ft | 185 kts | 297° |
| 2026-05-07 00:47 | 40.76380 | -73.53636 | 2996 ft | 173 kts | 297° |
| 2026-05-07 00:47 | 40.77033 | -73.54942 | 2918 ft | 169 kts | 297° |
| 2026-05-07 00:48 | 40.77680 | -73.56229 | 2617 ft | 169 kts | 297° |
| 2026-05-07 00:48 | 40.78333 | -73.57527 | 2285 ft | 170 kts | 297° |
| 2026-05-07 00:48 | 40.78922 | -73.58864 | 2030 ft | 167 kts | 279° |
| 2026-05-07 00:48 | 40.78719 | -73.60300 | 2009 ft | 164 kts | 236° |
| 2026-05-07 00:49 | 40.78046 | -73.61518 | 1993 ft | 164 kts | 237° |
| 2026-05-07 00:49 | 40.77403 | -73.62735 | 1997 ft | 160 kts | 237° |
| 2026-05-07 00:49 | 40.76766 | -73.63951 | 1986 ft | 162 kts | 237° |
| 2026-05-07 00:49 | 40.76129 | -73.65171 | 1997 ft | 162 kts | 237° |
| 2026-05-07 00:50 | 40.75486 | -73.66391 | 1987 ft | 162 kts | 237° |
| 2026-05-07 00:50 | 40.74685 | -73.67429 | 1994 ft | 165 kts | 218° |
| 2026-05-07 00:50 | 40.73720 | -73.68243 | 1998 ft | 165 kts | 218° |
| 2026-05-07 00:50 | 40.72733 | -73.69045 | 1867 ft | 168 kts | 216° |
| 2026-05-07 00:51 | 40.71741 | -73.69824 | 1673 ft | 164 kts | 216° |
| 2026-05-07 00:51 | 40.70764 | -73.70591 | 1432 ft | 161 kts | 216° |
| 2026-05-07 00:51 | 40.69842 | -73.71313 | 1215 ft | 149 kts | 215° |
| 2026-05-07 00:51 | 40.68986 | -73.71985 | 1056 ft | 142 kts | 215° |
| 2026-05-07 00:52 | 40.68145 | -73.72646 | 842 ft | 142 kts | 212° |
| 2026-05-07 00:52 | 40.67293 | -73.73313 | 667 ft | 142 kts | 211° |
| 2026-05-07 00:52 | 40.66445 | -73.73979 | 487 ft | 144 kts | 210° |
| 2026-05-07 00:52 | 40.65563 | -73.74668 | 311 ft | 149 kts | 209° |
| 2026-05-07 00:53 | 40.64672 | -73.75369 | 121 ft | 148 kts | 211° |
| 2026-05-07 00:53 | 40.63827 | -73.76031 | 19 ft | 126 kts | 211° |
| 2026-05-07 00:53 | 40.63273 | -73.76463 | 23 ft | 57 kts | 211° |
| 2026-05-07 00:53 | 40.63030 | -73.76690 | 22 ft | 32 kts | 224° |
| 2026-05-07 00:54 | 40.62942 | -73.76861 | 21 ft | 18 kts | 245° |
| 2026-05-07 00:54 | 40.62929 | -73.76961 | 21 ft | 10 kts | 284° |
| 2026-05-07 00:54 | 40.62962 | -73.77042 | 21 ft | 10 kts | 300° |
| 2026-05-07 00:54 | 40.62997 | -73.77120 | 23 ft | 10 kts | 300° |
| 2026-05-07 00:55 | 40.63030 | -73.77195 | 27 ft | 9 kts | 301° |
| 2026-05-07 00:55 | 40.63064 | -73.77268 | 26 ft | 9 kts | 301° |
| 2026-05-07 00:55 | 40.63100 | -73.77347 | 26 ft | 13 kts | 301° |
| 2026-05-07 00:55 | 40.63148 | -73.77454 | 28 ft | 13 kts | 301° |
| 2026-05-07 00:56 | 40.63195 | -73.77557 | 29 ft | 13 kts | 300° |
| 2026-05-07 00:56 | 40.63240 | -73.77658 | 27 ft | 13 kts | 301° |
| 2026-05-07 00:56 | 40.63292 | -73.77771 | 26 ft | 14 kts | 301° |
| 2026-05-07 00:56 | 40.63340 | -73.77877 | 28 ft | 13 kts | 300° |
| 2026-05-07 00:57 | 40.63386 | -73.77984 | 22 ft | 14 kts | 299° |
| 2026-05-07 00:57 | 40.63435 | -73.78100 | 23 ft | 14 kts | 300° |
| 2026-05-07 00:57 | 40.63487 | -73.78212 | 26 ft | 16 kts | 301° |
| 2026-05-07 00:57 | 40.63551 | -73.78355 | 28 ft | 19 kts | 300° |
| 2026-05-07 00:58 | 40.63615 | -73.78499 | 28 ft | 18 kts | 301° |
| 2026-05-07 00:58 | 40.63678 | -73.78637 | 27 ft | 17 kts | 302° |
| 2026-05-07 00:58 | 40.63740 | -73.78770 | 28 ft | 17 kts | 301° |
| 2026-05-07 00:58 | 40.63800 | -73.78904 | 25 ft | 18 kts | 300° |
| 2026-05-07 00:59 | 40.63930 | -73.79190 | 19 ft | 18 kts | 301° |
| 2026-05-07 00:59 | 40.63991 | -73.79327 | 20 ft | 17 kts | 301° |
| 2026-05-07 00:59 | 40.64035 | -73.79423 | 22 ft | 10 kts | 302° |
| 2026-05-07 01:00 | 40.64087 | -73.79491 | 21 ft | 12 kts | 330° |
| 2026-05-07 01:00 | 40.64174 | -73.79506 | 27 ft | 13 kts | 4° |
| 2026-05-07 01:00 | 40.64268 | -73.79498 | 25 ft | 15 kts | 3° |
| 2026-05-07 01:00 | 40.64385 | -73.79491 | 26 ft | 17 kts | 358° |
| 2026-05-07 01:01 | 40.64504 | -73.79502 | 25 ft | 17 kts | 355° |
| 2026-05-07 01:01 | 40.64618 | -73.79543 | 23 ft | 18 kts | 332° |
| 2026-05-07 01:01 | 40.64717 | -73.79635 | 23 ft | 17 kts | 324° |
| 2026-05-07 01:01 | 40.64817 | -73.79702 | 23 ft | 16 kts | 349° |
| 2026-05-07 01:02 | 40.64924 | -73.79703 | 23 ft | 15 kts | 1° |
| 2026-05-07 01:02 | 40.65010 | -73.79689 | 23 ft | 11 kts | 23° |
| 2026-05-07 01:02 | 40.65040 | -73.79604 | 23 ft | 11 kts | 90° |
| 2026-05-07 01:02 | 40.65036 | -73.79517 | 23 ft | 7 kts | 111° |
| 2026-05-07 01:03 | 40.65021 | -73.79494 | 24 ft | 2 kts | 141° |
| 2026-05-07 01:03 | 40.65009 | -73.79483 | 23 ft | 2 kts | 146° |
| 2026-05-07 01:03 | 40.64995 | -73.79473 | 23 ft | 2 kts | 150° |
| 2026-05-07 01:03 | 40.64986 | -73.79465 | 23 ft | 0 kts | 150° |
| 2026-05-07 01:05 | 40.64985 | -73.79465 | 23 ft | 0 kts | 150° |